sensor_id;sensor_type;location;lat;lon;timestamp;P1;durP1;ratioP1;P2;durP2;ratioP2
65189;SDS011;51777;53.570;9.984;2024-02-14T00:01:05;6.50;;;2.70;;
65189;SDS011;51777;53.570;9.984;2024-02-14T00:03:34;3.50;;;2.63;;
65189;SDS011;51777;53.570;9.984;2024-02-14T00:05:59;7.65;;;2.85;;
65189;SDS011;51777;53.570;9.984;2024-02-14T00:08:25;7.95;;;2.80;;
65189;SDS011;51777;53.570;9.984;2024-02-14T00:10:50;9.65;;;2.53;;
65189;SDS011;51777;53.570;9.984;2024-02-14T00:13:16;5.13;;;2.33;;
65189;SDS011;51777;53.570;9.984;2024-02-14T00:15:43;8.43;;;2.90;;
65189;SDS011;51777;53.570;9.984;2024-02-14T00:18:10;7.75;;;2.80;;
65189;SDS011;51777;53.570;9.984;2024-02-14T00:20:35;3.92;;;2.40;;
65189;SDS011;51777;53.570;9.984;2024-02-14T00:23:01;8.90;;;2.83;;
65189;SDS011;51777;53.570;9.984;2024-02-14T00:25:26;7.07;;;2.38;;
65189;SDS011;51777;53.570;9.984;2024-02-14T00:27:52;9.48;;;2.80;;
65189;SDS011;51777;53.570;9.984;2024-02-14T00:30:19;6.53;;;2.75;;
65189;SDS011;51777;53.570;9.984;2024-02-14T00:32:44;3.22;;;2.50;;
65189;SDS011;51777;53.570;9.984;2024-02-14T00:35:10;3.13;;;2.20;;
65189;SDS011;51777;53.570;9.984;2024-02-14T00:37:35;7.90;;;3.03;;
65189;SDS011;51777;53.570;9.984;2024-02-14T00:40:01;7.20;;;2.75;;
65189;SDS011;51777;53.570;9.984;2024-02-14T00:42:26;4.97;;;2.50;;
65189;SDS011;51777;53.570;9.984;2024-02-14T00:44:52;6.80;;;2.72;;
65189;SDS011;51777;53.570;9.984;2024-02-14T00:47:18;10.52;;;2.70;;
65189;SDS011;51777;53.570;9.984;2024-02-14T00:49:43;4.10;;;2.30;;
65189;SDS011;51777;53.570;9.984;2024-02-14T00:52:08;5.32;;;2.58;;
65189;SDS011;51777;53.570;9.984;2024-02-14T00:54:34;7.40;;;2.25;;
65189;SDS011;51777;53.570;9.984;2024-02-14T00:57:00;5.75;;;2.50;;
65189;SDS011;51777;53.570;9.984;2024-02-14T00:59:25;4.47;;;2.30;;
65189;SDS011;51777;53.570;9.984;2024-02-14T01:01:51;4.40;;;2.50;;
65189;SDS011;51777;53.570;9.984;2024-02-14T01:04:17;2.80;;;1.58;;
65189;SDS011;51777;53.570;9.984;2024-02-14T01:06:42;9.52;;;2.55;;
65189;SDS011;51777;53.570;9.984;2024-02-14T01:09:07;3.88;;;2.22;;
65189;SDS011;51777;53.570;9.984;2024-02-14T01:11:33;2.63;;;1.50;;
65189;SDS011;51777;53.570;9.984;2024-02-14T01:13:59;4.18;;;2.20;;
65189;SDS011;51777;53.570;9.984;2024-02-14T01:16:25;5.78;;;2.40;;
65189;SDS011;51777;53.570;9.984;2024-02-14T01:18:53;5.53;;;2.30;;
65189;SDS011;51777;53.570;9.984;2024-02-14T01:21:18;6.93;;;2.50;;
65189;SDS011;51777;53.570;9.984;2024-02-14T01:23:44;6.65;;;2.22;;
65189;SDS011;51777;53.570;9.984;2024-02-14T01:26:09;6.18;;;2.80;;
65189;SDS011;51777;53.570;9.984;2024-02-14T01:28:34;6.80;;;2.35;;
65189;SDS011;51777;53.570;9.984;2024-02-14T01:31:00;6.85;;;2.75;;
65189;SDS011;51777;53.570;9.984;2024-02-14T01:33:25;3.88;;;2.20;;
65189;SDS011;51777;53.570;9.984;2024-02-14T01:35:51;6.03;;;2.58;;
65189;SDS011;51777;53.570;9.984;2024-02-14T01:38:16;7.40;;;2.50;;
65189;SDS011;51777;53.570;9.984;2024-02-14T01:40:42;4.75;;;2.05;;
65189;SDS011;51777;53.570;9.984;2024-02-14T01:43:09;4.32;;;2.80;;
65189;SDS011;51777;53.570;9.984;2024-02-14T01:45:35;3.83;;;2.20;;
65189;SDS011;51777;53.570;9.984;2024-02-14T01:48:04;4.57;;;2.30;;
65189;SDS011;51777;53.570;9.984;2024-02-14T01:50:31;6.43;;;2.63;;
65189;SDS011;51777;53.570;9.984;2024-02-14T01:52:58;5.28;;;2.40;;
65189;SDS011;51777;53.570;9.984;2024-02-14T01:55:25;3.97;;;2.42;;
65189;SDS011;51777;53.570;9.984;2024-02-14T01:57:54;5.45;;;2.05;;
65189;SDS011;51777;53.570;9.984;2024-02-14T02:00:20;6.40;;;2.55;;
65189;SDS011;51777;53.570;9.984;2024-02-14T02:02:46;9.68;;;2.47;;
65189;SDS011;51777;53.570;9.984;2024-02-14T02:05:13;6.05;;;2.80;;
65189;SDS011;51777;53.570;9.984;2024-02-14T02:07:39;3.47;;;2.47;;
65189;SDS011;51777;53.570;9.984;2024-02-14T02:10:11;8.43;;;2.80;;
65189;SDS011;51777;53.570;9.984;2024-02-14T02:12:37;2.83;;;2.15;;
65189;SDS011;51777;53.570;9.984;2024-02-14T02:15:04;7.10;;;2.67;;
65189;SDS011;51777;53.570;9.984;2024-02-14T02:17:31;5.95;;;2.53;;
65189;SDS011;51777;53.570;9.984;2024-02-14T02:19:59;2.47;;;2.10;;
65189;SDS011;51777;53.570;9.984;2024-02-14T02:22:25;4.38;;;2.60;;
65189;SDS011;51777;53.570;9.984;2024-02-14T02:24:51;4.22;;;2.72;;
65189;SDS011;51777;53.570;9.984;2024-02-14T02:27:16;8.05;;;3.17;;
65189;SDS011;51777;53.570;9.984;2024-02-14T02:29:42;3.40;;;2.45;;
65189;SDS011;51777;53.570;9.984;2024-02-14T02:32:08;3.60;;;2.55;;
65189;SDS011;51777;53.570;9.984;2024-02-14T02:34:35;4.78;;;2.60;;
65189;SDS011;51777;53.570;9.984;2024-02-14T02:37:04;6.07;;;2.42;;
65189;SDS011;51777;53.570;9.984;2024-02-14T02:39:32;2.65;;;2.05;;
65189;SDS011;51777;53.570;9.984;2024-02-14T02:41:58;4.50;;;2.80;;
65189;SDS011;51777;53.570;9.984;2024-02-14T02:44:24;9.82;;;2.88;;
65189;SDS011;51777;53.570;9.984;2024-02-14T02:46:50;4.85;;;2.10;;
65189;SDS011;51777;53.570;9.984;2024-02-14T02:49:15;3.33;;;2.40;;
65189;SDS011;51777;53.570;9.984;2024-02-14T02:51:41;4.57;;;2.65;;
65189;SDS011;51777;53.570;9.984;2024-02-14T02:54:06;6.03;;;2.75;;
65189;SDS011;51777;53.570;9.984;2024-02-14T02:56:33;5.88;;;3.38;;
65189;SDS011;51777;53.570;9.984;2024-02-14T02:58:59;5.97;;;2.80;;
65189;SDS011;51777;53.570;9.984;2024-02-14T03:01:24;5.57;;;2.95;;
65189;SDS011;51777;53.570;9.984;2024-02-14T03:03:54;5.85;;;3.30;;
65189;SDS011;51777;53.570;9.984;2024-02-14T03:06:19;6.10;;;3.30;;
65189;SDS011;51777;53.570;9.984;2024-02-14T03:08:45;5.30;;;3.08;;
65189;SDS011;51777;53.570;9.984;2024-02-14T03:11:11;5.43;;;2.90;;
65189;SDS011;51777;53.570;9.984;2024-02-14T03:13:36;5.78;;;3.20;;
65189;SDS011;51777;53.570;9.984;2024-02-14T03:16:05;7.53;;;2.80;;
65189;SDS011;51777;53.570;9.984;2024-02-14T03:18:32;7.82;;;3.10;;
65189;SDS011;51777;53.570;9.984;2024-02-14T03:20:57;6.70;;;3.10;;
65189;SDS011;51777;53.570;9.984;2024-02-14T03:23:23;4.15;;;2.90;;
65189;SDS011;51777;53.570;9.984;2024-02-14T03:25:48;5.05;;;2.80;;
65189;SDS011;51777;53.570;9.984;2024-02-14T03:28:14;3.97;;;2.70;;
65189;SDS011;51777;53.570;9.984;2024-02-14T03:30:39;6.00;;;2.45;;
65189;SDS011;51777;53.570;9.984;2024-02-14T03:33:05;4.35;;;3.03;;
65189;SDS011;51777;53.570;9.984;2024-02-14T03:35:33;6.05;;;3.60;;
65189;SDS011;51777;53.570;9.984;2024-02-14T03:38:00;5.68;;;2.75;;
65189;SDS011;51777;53.570;9.984;2024-02-14T03:40:27;2.08;;;1.63;;
65189;SDS011;51777;53.570;9.984;2024-02-14T03:42:55;2.67;;;2.00;;
65189;SDS011;51777;53.570;9.984;2024-02-14T03:45:20;5.43;;;2.50;;
65189;SDS011;51777;53.570;9.984;2024-02-14T03:47:46;5.50;;;2.50;;
65189;SDS011;51777;53.570;9.984;2024-02-14T03:50:11;6.68;;;3.40;;
65189;SDS011;51777;53.570;9.984;2024-02-14T03:52:37;6.07;;;3.55;;
65189;SDS011;51777;53.570;9.984;2024-02-14T03:55:02;6.45;;;2.67;;
65189;SDS011;51777;53.570;9.984;2024-02-14T03:57:28;6.20;;;3.25;;
65189;SDS011;51777;53.570;9.984;2024-02-14T03:59:54;5.95;;;2.95;;
65189;SDS011;51777;53.570;9.984;2024-02-14T04:02:20;3.90;;;2.80;;
65189;SDS011;51777;53.570;9.984;2024-02-14T04:04:49;5.82;;;3.55;;
65189;SDS011;51777;53.570;9.984;2024-02-14T04:07:14;8.40;;;3.80;;
65189;SDS011;51777;53.570;9.984;2024-02-14T04:09:40;3.72;;;2.95;;
65189;SDS011;51777;53.570;9.984;2024-02-14T04:12:05;10.02;;;3.58;;
65189;SDS011;51777;53.570;9.984;2024-02-14T04:14:31;4.50;;;3.05;;
65189;SDS011;51777;53.570;9.984;2024-02-14T04:16:56;6.82;;;3.33;;
65189;SDS011;51777;53.570;9.984;2024-02-14T04:19:22;8.23;;;3.08;;
65189;SDS011;51777;53.570;9.984;2024-02-14T04:21:47;5.00;;;3.60;;
65189;SDS011;51777;53.570;9.984;2024-02-14T04:24:13;5.03;;;3.05;;
65189;SDS011;51777;53.570;9.984;2024-02-14T04:26:39;6.40;;;3.30;;
65189;SDS011;51777;53.570;9.984;2024-02-14T04:29:04;7.40;;;3.83;;
65189;SDS011;51777;53.570;9.984;2024-02-14T04:31:29;4.85;;;3.20;;
65189;SDS011;51777;53.570;9.984;2024-02-14T04:33:56;7.47;;;3.63;;
65189;SDS011;51777;53.570;9.984;2024-02-14T04:36:22;5.00;;;3.25;;
65189;SDS011;51777;53.570;9.984;2024-02-14T04:38:50;3.15;;;2.40;;
65189;SDS011;51777;53.570;9.984;2024-02-14T04:41:16;4.03;;;2.40;;
65189;SDS011;51777;53.570;9.984;2024-02-14T04:43:42;5.32;;;3.13;;
65189;SDS011;51777;53.570;9.984;2024-02-14T04:46:07;6.28;;;3.47;;
65189;SDS011;51777;53.570;9.984;2024-02-14T04:48:33;5.30;;;4.03;;
65189;SDS011;51777;53.570;9.984;2024-02-14T04:51:03;5.05;;;4.15;;
65189;SDS011;51777;53.570;9.984;2024-02-14T04:53:30;4.60;;;2.85;;
65189;SDS011;51777;53.570;9.984;2024-02-14T04:55:55;6.18;;;3.20;;
65189;SDS011;51777;53.570;9.984;2024-02-14T04:58:21;6.82;;;4.35;;
65189;SDS011;51777;53.570;9.984;2024-02-14T05:00:47;7.05;;;3.67;;
65189;SDS011;51777;53.570;9.984;2024-02-14T05:03:12;6.00;;;2.72;;
65189;SDS011;51777;53.570;9.984;2024-02-14T05:05:38;10.98;;;4.53;;
65189;SDS011;51777;53.570;9.984;2024-02-14T05:08:03;6.22;;;4.05;;
65189;SDS011;51777;53.570;9.984;2024-02-14T05:10:29;11.60;;;4.65;;
65189;SDS011;51777;53.570;9.984;2024-02-14T05:12:56;6.55;;;4.35;;
65189;SDS011;51777;53.570;9.984;2024-02-14T05:15:21;7.97;;;4.97;;
65189;SDS011;51777;53.570;9.984;2024-02-14T05:17:47;4.07;;;2.22;;
65189;SDS011;51777;53.570;9.984;2024-02-14T05:20:13;2.45;;;2.10;;
65189;SDS011;51777;53.570;9.984;2024-02-14T05:22:38;7.38;;;4.25;;
65189;SDS011;51777;53.570;9.984;2024-02-14T05:25:04;6.07;;;3.70;;
65189;SDS011;51777;53.570;9.984;2024-02-14T05:27:32;10.20;;;5.05;;
65189;SDS011;51777;53.570;9.984;2024-02-14T05:29:58;9.35;;;3.50;;
65189;SDS011;51777;53.570;9.984;2024-02-14T05:32:24;4.68;;;3.33;;
65189;SDS011;51777;53.570;9.984;2024-02-14T05:34:50;5.63;;;3.05;;
65189;SDS011;51777;53.570;9.984;2024-02-14T05:37:16;6.82;;;4.10;;
65189;SDS011;51777;53.570;9.984;2024-02-14T05:39:41;7.05;;;3.92;;
65189;SDS011;51777;53.570;9.984;2024-02-14T05:42:08;6.60;;;4.53;;
65189;SDS011;51777;53.570;9.984;2024-02-14T05:44:34;7.43;;;4.63;;
65189;SDS011;51777;53.570;9.984;2024-02-14T05:46:59;6.55;;;3.45;;
65189;SDS011;51777;53.570;9.984;2024-02-14T05:49:25;8.10;;;3.83;;
65189;SDS011;51777;53.570;9.984;2024-02-14T05:51:50;4.22;;;3.60;;
65189;SDS011;51777;53.570;9.984;2024-02-14T05:54:18;5.28;;;3.67;;
65189;SDS011;51777;53.570;9.984;2024-02-14T05:56:43;6.15;;;3.70;;
65189;SDS011;51777;53.570;9.984;2024-02-14T05:59:09;5.15;;;3.58;;
65189;SDS011;51777;53.570;9.984;2024-02-14T06:01:35;3.22;;;2.42;;
65189;SDS011;51777;53.570;9.984;2024-02-14T06:04:01;7.65;;;4.00;;
65189;SDS011;51777;53.570;9.984;2024-02-14T06:06:26;8.95;;;4.15;;
65189;SDS011;51777;53.570;9.984;2024-02-14T06:08:52;4.57;;;3.33;;
65189;SDS011;51777;53.570;9.984;2024-02-14T06:11:17;6.50;;;4.13;;
65189;SDS011;51777;53.570;9.984;2024-02-14T06:13:46;10.70;;;4.70;;
65189;SDS011;51777;53.570;9.984;2024-02-14T06:16:12;9.18;;;3.90;;
65189;SDS011;51777;53.570;9.984;2024-02-14T06:18:38;6.03;;;3.20;;
65189;SDS011;51777;53.570;9.984;2024-02-14T06:21:04;4.65;;;3.42;;
65189;SDS011;51777;53.570;9.984;2024-02-14T06:23:30;6.65;;;4.47;;
65189;SDS011;51777;53.570;9.984;2024-02-14T06:25:56;3.83;;;3.17;;
65189;SDS011;51777;53.570;9.984;2024-02-14T06:28:22;5.93;;;4.22;;
65189;SDS011;51777;53.570;9.984;2024-02-14T06:30:49;5.32;;;4.22;;
65189;SDS011;51777;53.570;9.984;2024-02-14T06:33:14;6.78;;;4.03;;
65189;SDS011;51777;53.570;9.984;2024-02-14T06:35:40;5.85;;;4.35;;
65189;SDS011;51777;53.570;9.984;2024-02-14T06:38:05;5.78;;;3.90;;
65189;SDS011;51777;53.570;9.984;2024-02-14T06:40:31;8.32;;;4.07;;
65189;SDS011;51777;53.570;9.984;2024-02-14T06:42:57;5.45;;;4.10;;
65189;SDS011;51777;53.570;9.984;2024-02-14T06:45:25;7.82;;;4.70;;
65189;SDS011;51777;53.570;9.984;2024-02-14T06:47:55;8.90;;;4.38;;
65189;SDS011;51777;53.570;9.984;2024-02-14T06:50:21;7.88;;;4.68;;
65189;SDS011;51777;53.570;9.984;2024-02-14T06:52:46;7.50;;;4.25;;
65189;SDS011;51777;53.570;9.984;2024-02-14T06:55:12;5.10;;;3.80;;
65189;SDS011;51777;53.570;9.984;2024-02-14T06:57:38;7.85;;;5.00;;
65189;SDS011;51777;53.570;9.984;2024-02-14T07:00:04;6.20;;;3.25;;
65189;SDS011;51777;53.570;9.984;2024-02-14T07:02:33;6.13;;;4.30;;
65189;SDS011;51777;53.570;9.984;2024-02-14T07:04:59;7.03;;;4.93;;
65189;SDS011;51777;53.570;9.984;2024-02-14T07:07:24;5.95;;;4.05;;
65189;SDS011;51777;53.570;9.984;2024-02-14T07:09:51;4.68;;;3.67;;
65189;SDS011;51777;53.570;9.984;2024-02-14T07:12:16;8.88;;;4.70;;
65189;SDS011;51777;53.570;9.984;2024-02-14T07:14:41;6.68;;;4.57;;
65189;SDS011;51777;53.570;9.984;2024-02-14T07:17:07;5.13;;;3.13;;
65189;SDS011;51777;53.570;9.984;2024-02-14T07:19:32;7.15;;;4.47;;
65189;SDS011;51777;53.570;9.984;2024-02-14T07:21:58;5.28;;;4.40;;
65189;SDS011;51777;53.570;9.984;2024-02-14T07:24:23;4.78;;;3.55;;
65189;SDS011;51777;53.570;9.984;2024-02-14T07:26:49;6.93;;;4.38;;
65189;SDS011;51777;53.570;9.984;2024-02-14T07:29:14;6.53;;;4.22;;
65189;SDS011;51777;53.570;9.984;2024-02-14T07:31:39;5.47;;;3.42;;
65189;SDS011;51777;53.570;9.984;2024-02-14T07:34:06;6.72;;;3.97;;
65189;SDS011;51777;53.570;9.984;2024-02-14T07:36:32;7.25;;;4.60;;
65189;SDS011;51777;53.570;9.984;2024-02-14T07:39:00;8.77;;;4.60;;
65189;SDS011;51777;53.570;9.984;2024-02-14T07:41:25;7.97;;;4.55;;
65189;SDS011;51777;53.570;9.984;2024-02-14T07:43:51;6.40;;;4.13;;
65189;SDS011;51777;53.570;9.984;2024-02-14T07:46:20;5.50;;;4.35;;
65189;SDS011;51777;53.570;9.984;2024-02-14T07:48:47;3.78;;;2.63;;
65189;SDS011;51777;53.570;9.984;2024-02-14T07:51:13;5.25;;;3.50;;
65189;SDS011;51777;53.570;9.984;2024-02-14T07:53:39;9.43;;;3.75;;
65189;SDS011;51777;53.570;9.984;2024-02-14T07:56:06;6.72;;;4.03;;
65189;SDS011;51777;53.570;9.984;2024-02-14T07:58:31;5.70;;;4.20;;
65189;SDS011;51777;53.570;9.984;2024-02-14T08:00:57;3.75;;;3.17;;
65189;SDS011;51777;53.570;9.984;2024-02-14T08:03:22;3.95;;;2.67;;
65189;SDS011;51777;53.570;9.984;2024-02-14T08:05:49;6.97;;;4.50;;
65189;SDS011;51777;53.570;9.984;2024-02-14T08:08:16;7.15;;;4.25;;
65189;SDS011;51777;53.570;9.984;2024-02-14T08:10:42;6.22;;;4.47;;
65189;SDS011;51777;53.570;9.984;2024-02-14T08:13:08;6.97;;;4.50;;
65189;SDS011;51777;53.570;9.984;2024-02-14T08:15:33;7.25;;;5.20;;
65189;SDS011;51777;53.570;9.984;2024-02-14T08:17:59;4.85;;;3.90;;
65189;SDS011;51777;53.570;9.984;2024-02-14T08:20:24;4.10;;;3.22;;
65189;SDS011;51777;53.570;9.984;2024-02-14T08:22:52;6.68;;;4.70;;
65189;SDS011;51777;53.570;9.984;2024-02-14T08:25:17;5.32;;;3.85;;
65189;SDS011;51777;53.570;9.984;2024-02-14T08:27:43;5.72;;;4.50;;
65189;SDS011;51777;53.570;9.984;2024-02-14T08:30:09;7.47;;;4.85;;
65189;SDS011;51777;53.570;9.984;2024-02-14T08:32:36;5.90;;;4.60;;
65189;SDS011;51777;53.570;9.984;2024-02-14T08:35:02;6.28;;;4.47;;
65189;SDS011;51777;53.570;9.984;2024-02-14T08:37:27;4.60;;;3.83;;
65189;SDS011;51777;53.570;9.984;2024-02-14T08:39:53;5.85;;;4.50;;
65189;SDS011;51777;53.570;9.984;2024-02-14T08:42:19;5.75;;;4.30;;
65189;SDS011;51777;53.570;9.984;2024-02-14T08:44:44;8.95;;;4.53;;
65189;SDS011;51777;53.570;9.984;2024-02-14T08:47:10;6.85;;;4.22;;
65189;SDS011;51777;53.570;9.984;2024-02-14T08:49:40;9.35;;;4.38;;
65189;SDS011;51777;53.570;9.984;2024-02-14T08:52:05;5.68;;;4.15;;
65189;SDS011;51777;53.570;9.984;2024-02-14T08:54:31;10.05;;;5.55;;
65189;SDS011;51777;53.570;9.984;2024-02-14T08:56:57;6.75;;;4.43;;
65189;SDS011;51777;53.570;9.984;2024-02-14T08:59:24;7.43;;;4.07;;
65189;SDS011;51777;53.570;9.984;2024-02-14T09:01:49;5.90;;;4.30;;
65189;SDS011;51777;53.570;9.984;2024-02-14T09:04:15;5.68;;;4.55;;
65189;SDS011;51777;53.570;9.984;2024-02-14T09:06:40;7.15;;;4.47;;
65189;SDS011;51777;53.570;9.984;2024-02-14T09:09:06;6.82;;;4.65;;
65189;SDS011;51777;53.570;9.984;2024-02-14T09:11:35;8.07;;;4.80;;
65189;SDS011;51777;53.570;9.984;2024-02-14T09:14:01;5.15;;;4.65;;
65189;SDS011;51777;53.570;9.984;2024-02-14T09:16:29;6.03;;;4.60;;
65189;SDS011;51777;53.570;9.984;2024-02-14T09:18:55;9.02;;;4.90;;
65189;SDS011;51777;53.570;9.984;2024-02-14T09:21:21;7.35;;;4.25;;
65189;SDS011;51777;53.570;9.984;2024-02-14T09:23:47;7.03;;;4.22;;
65189;SDS011;51777;53.570;9.984;2024-02-14T09:26:13;6.00;;;4.10;;
65189;SDS011;51777;53.570;9.984;2024-02-14T09:28:41;6.22;;;4.10;;
65189;SDS011;51777;53.570;9.984;2024-02-14T09:31:07;9.40;;;4.20;;
65189;SDS011;51777;53.570;9.984;2024-02-14T09:33:35;6.88;;;4.80;;
65189;SDS011;51777;53.570;9.984;2024-02-14T09:36:02;8.02;;;4.55;;
65189;SDS011;51777;53.570;9.984;2024-02-14T09:38:27;12.00;;;4.65;;
65189;SDS011;51777;53.570;9.984;2024-02-14T09:40:54;10.40;;;4.57;;
65189;SDS011;51777;53.570;9.984;2024-02-14T09:43:34;6.10;;;4.32;;
65189;SDS011;51777;53.570;9.984;2024-02-14T09:46:03;7.38;;;4.45;;
65189;SDS011;51777;53.570;9.984;2024-02-14T09:48:29;7.28;;;4.40;;
65189;SDS011;51777;53.570;9.984;2024-02-14T09:50:56;6.15;;;4.15;;
65189;SDS011;51777;53.570;9.984;2024-02-14T09:53:22;6.50;;;4.20;;
65189;SDS011;51777;53.570;9.984;2024-02-14T09:55:48;4.30;;;3.90;;
65189;SDS011;51777;53.570;9.984;2024-02-14T09:58:15;5.90;;;3.67;;
65189;SDS011;51777;53.570;9.984;2024-02-14T10:00:42;7.22;;;3.55;;
65189;SDS011;51777;53.570;9.984;2024-02-14T10:03:08;3.92;;;3.53;;
65189;SDS011;51777;53.570;9.984;2024-02-14T10:05:33;3.58;;;3.28;;
65189;SDS011;51777;53.570;9.984;2024-02-14T10:07:59;5.55;;;4.03;;
65189;SDS011;51777;53.570;9.984;2024-02-14T10:10:26;4.25;;;3.50;;
65189;SDS011;51777;53.570;9.984;2024-02-14T10:12:54;4.75;;;3.75;;
65189;SDS011;51777;53.570;9.984;2024-02-14T10:15:21;4.22;;;3.70;;
65189;SDS011;51777;53.570;9.984;2024-02-14T10:17:47;5.53;;;3.38;;
65189;SDS011;51777;53.570;9.984;2024-02-14T10:20:16;5.95;;;3.63;;
65189;SDS011;51777;53.570;9.984;2024-02-14T10:22:42;4.32;;;2.72;;
65189;SDS011;51777;53.570;9.984;2024-02-14T10:25:09;3.85;;;2.05;;
65189;SDS011;51777;53.570;9.984;2024-02-14T10:27:36;2.25;;;2.05;;
65189;SDS011;51777;53.570;9.984;2024-02-14T10:30:04;1.85;;;1.75;;
65189;SDS011;51777;53.570;9.984;2024-02-14T10:32:39;1.42;;;1.33;;
65189;SDS011;51777;53.570;9.984;2024-02-14T10:35:13;3.45;;;2.65;;
65189;SDS011;51777;53.570;9.984;2024-02-14T10:37:40;9.10;;;2.90;;
65189;SDS011;51777;53.570;9.984;2024-02-14T10:40:07;2.55;;;2.35;;
65189;SDS011;51777;53.570;9.984;2024-02-14T10:42:34;2.65;;;2.42;;
65189;SDS011;51777;53.570;9.984;2024-02-14T10:45:03;2.38;;;1.70;;
65189;SDS011;51777;53.570;9.984;2024-02-14T10:47:36;3.30;;;2.97;;
65189;SDS011;51777;53.570;9.984;2024-02-14T10:50:09;2.45;;;2.25;;
65189;SDS011;51777;53.570;9.984;2024-02-14T10:52:38;1.98;;;1.88;;
65189;SDS011;51777;53.570;9.984;2024-02-14T10:55:16;3.00;;;2.78;;
65189;SDS011;51777;53.570;9.984;2024-02-14T10:57:43;2.80;;;2.60;;
65189;SDS011;51777;53.570;9.984;2024-02-14T11:00:10;3.50;;;2.80;;
65189;SDS011;51777;53.570;9.984;2024-02-14T11:02:39;2.88;;;2.60;;
65189;SDS011;51777;53.570;9.984;2024-02-14T11:05:12;2.15;;;2.03;;
65189;SDS011;51777;53.570;9.984;2024-02-14T11:07:44;1.60;;;1.50;;
65189;SDS011;51777;53.570;9.984;2024-02-14T11:10:15;3.80;;;3.00;;
65189;SDS011;51777;53.570;9.984;2024-02-14T11:12:48;2.97;;;2.30;;
65189;SDS011;51777;53.570;9.984;2024-02-14T11:15:16;3.00;;;2.70;;
65189;SDS011;51777;53.570;9.984;2024-02-14T11:17:48;2.42;;;2.22;;
65189;SDS011;51777;53.570;9.984;2024-02-14T11:20:21;4.38;;;3.00;;
65189;SDS011;51777;53.570;9.984;2024-02-14T11:22:56;4.60;;;3.00;;
65189;SDS011;51777;53.570;9.984;2024-02-14T11:25:24;3.00;;;2.78;;
65189;SDS011;51777;53.570;9.984;2024-02-14T11:28:00;4.10;;;3.70;;
65189;SDS011;51777;53.570;9.984;2024-02-14T11:30:39;5.80;;;3.58;;
65189;SDS011;51777;53.570;9.984;2024-02-14T11:35:40;4.22;;;3.70;;
65189;SDS011;51777;53.570;9.984;2024-02-14T11:38:07;4.93;;;4.07;;
65189;SDS011;51777;53.570;9.984;2024-02-14T11:40:34;3.60;;;2.95;;
65189;SDS011;51777;53.570;9.984;2024-02-14T11:43:00;5.07;;;3.67;;
65189;SDS011;51777;53.570;9.984;2024-02-14T11:45:27;5.50;;;4.07;;
65189;SDS011;51777;53.570;9.984;2024-02-14T11:47:53;4.47;;;4.07;;
65189;SDS011;51777;53.570;9.984;2024-02-14T11:50:19;4.45;;;4.05;;
65189;SDS011;51777;53.570;9.984;2024-02-14T11:52:45;4.22;;;3.75;;
65189;SDS011;51777;53.570;9.984;2024-02-14T11:55:11;5.07;;;3.92;;
65189;SDS011;51777;53.570;9.984;2024-02-14T11:57:41;4.43;;;3.90;;
65189;SDS011;51777;53.570;9.984;2024-02-14T12:00:13;3.83;;;3.42;;
65189;SDS011;51777;53.570;9.984;2024-02-14T12:02:39;4.97;;;3.95;;
65189;SDS011;51777;53.570;9.984;2024-02-14T12:05:05;5.00;;;3.78;;
65189;SDS011;51777;53.570;9.984;2024-02-14T12:07:31;2.42;;;2.22;;
65189;SDS011;51777;53.570;9.984;2024-02-14T12:09:57;4.63;;;4.20;;
65189;SDS011;51777;53.570;9.984;2024-02-14T12:12:22;8.60;;;5.10;;
65189;SDS011;51777;53.570;9.984;2024-02-14T12:14:52;4.53;;;4.13;;
65189;SDS011;51777;53.570;9.984;2024-02-14T12:17:25;9.38;;;5.10;;
65189;SDS011;51777;53.570;9.984;2024-02-14T12:19:51;6.60;;;5.25;;
65189;SDS011;51777;53.570;9.984;2024-02-14T12:22:18;6.30;;;4.72;;
65189;SDS011;51777;53.570;9.984;2024-02-14T12:24:44;3.17;;;2.50;;
65189;SDS011;51777;53.570;9.984;2024-02-14T12:27:10;7.28;;;5.65;;
65189;SDS011;51777;53.570;9.984;2024-02-14T12:29:35;3.80;;;3.28;;
65189;SDS011;51777;53.570;9.984;2024-02-14T12:32:07;5.53;;;4.20;;
65189;SDS011;51777;53.570;9.984;2024-02-14T12:34:33;5.15;;;4.00;;
65189;SDS011;51777;53.570;9.984;2024-02-14T12:36:58;4.80;;;4.18;;
65189;SDS011;51777;53.570;9.984;2024-02-14T12:39:26;4.25;;;3.72;;
65189;SDS011;51777;53.570;9.984;2024-02-14T12:41:52;6.28;;;4.63;;
65189;SDS011;51777;53.570;9.984;2024-02-14T12:44:17;6.00;;;5.32;;
65189;SDS011;51777;53.570;9.984;2024-02-14T12:46:43;5.35;;;3.83;;
65189;SDS011;51777;53.570;9.984;2024-02-14T12:49:08;7.50;;;5.45;;
65189;SDS011;51777;53.570;9.984;2024-02-14T12:51:34;7.28;;;5.53;;
65189;SDS011;51777;53.570;9.984;2024-02-14T12:54:01;6.75;;;5.00;;
65189;SDS011;51777;53.570;9.984;2024-02-14T12:56:26;5.72;;;4.55;;
65189;SDS011;51777;53.570;9.984;2024-02-14T12:58:52;7.72;;;5.20;;
65189;SDS011;51777;53.570;9.984;2024-02-14T13:01:18;6.53;;;5.35;;
65189;SDS011;51777;53.570;9.984;2024-02-14T13:03:43;12.60;;;7.18;;
65189;SDS011;51777;53.570;9.984;2024-02-14T13:06:12;7.30;;;4.90;;
65189;SDS011;51777;53.570;9.984;2024-02-14T13:08:39;4.45;;;3.42;;
65189;SDS011;51777;53.570;9.984;2024-02-14T13:11:04;9.88;;;7.45;;
65189;SDS011;51777;53.570;9.984;2024-02-14T13:13:30;7.60;;;5.15;;
65189;SDS011;51777;53.570;9.984;2024-02-14T13:15:56;13.13;;;7.45;;
65189;SDS011;51777;53.570;9.984;2024-02-14T13:18:21;10.32;;;6.18;;
65189;SDS011;51777;53.570;9.984;2024-02-14T13:20:47;9.93;;;6.75;;
65189;SDS011;51777;53.570;9.984;2024-02-14T13:23:14;5.82;;;4.72;;
65189;SDS011;51777;53.570;9.984;2024-02-14T13:25:40;8.27;;;5.70;;
65189;SDS011;51777;53.570;9.984;2024-02-14T13:28:06;6.93;;;5.63;;
65189;SDS011;51777;53.570;9.984;2024-02-14T13:30:32;3.60;;;2.95;;
65189;SDS011;51777;53.570;9.984;2024-02-14T13:32:58;5.53;;;4.40;;
65189;SDS011;51777;53.570;9.984;2024-02-14T13:35:23;8.23;;;5.85;;
65189;SDS011;51777;53.570;9.984;2024-02-14T13:37:49;5.30;;;3.80;;
65189;SDS011;51777;53.570;9.984;2024-02-14T13:40:14;10.55;;;6.95;;
65189;SDS011;51777;53.570;9.984;2024-02-14T13:42:40;8.32;;;5.32;;
65189;SDS011;51777;53.570;9.984;2024-02-14T13:45:05;7.70;;;5.32;;
65189;SDS011;51777;53.570;9.984;2024-02-14T13:47:36;4.07;;;3.53;;
65189;SDS011;51777;53.570;9.984;2024-02-14T13:50:07;3.55;;;2.72;;
65189;SDS011;51777;53.570;9.984;2024-02-14T13:52:34;9.18;;;6.25;;
65189;SDS011;51777;53.570;9.984;2024-02-14T13:55:00;10.65;;;5.53;;
65189;SDS011;51777;53.570;9.984;2024-02-14T13:57:27;5.13;;;3.67;;
65189;SDS011;51777;53.570;9.984;2024-02-14T13:59:54;10.73;;;6.53;;
65189;SDS011;51777;53.570;9.984;2024-02-14T14:02:21;6.95;;;4.85;;
65189;SDS011;51777;53.570;9.984;2024-02-14T14:04:46;9.13;;;5.65;;
65189;SDS011;51777;53.570;9.984;2024-02-14T14:07:13;8.45;;;5.75;;
65189;SDS011;51777;53.570;9.984;2024-02-14T14:09:38;5.80;;;5.03;;
65189;SDS011;51777;53.570;9.984;2024-02-14T14:12:04;6.00;;;4.80;;
65189;SDS011;51777;53.570;9.984;2024-02-14T14:14:32;8.00;;;6.07;;
65189;SDS011;51777;53.570;9.984;2024-02-14T14:16:58;7.25;;;4.90;;
65189;SDS011;51777;53.570;9.984;2024-02-14T14:19:23;9.18;;;6.03;;
65189;SDS011;51777;53.570;9.984;2024-02-14T14:21:49;3.95;;;3.58;;
65189;SDS011;51777;53.570;9.984;2024-02-14T14:24:14;6.15;;;4.35;;
65189;SDS011;51777;53.570;9.984;2024-02-14T14:26:40;7.40;;;3.90;;
65189;SDS011;51777;53.570;9.984;2024-02-14T14:29:06;5.47;;;3.85;;
65189;SDS011;51777;53.570;9.984;2024-02-14T14:31:31;6.68;;;5.40;;
65189;SDS011;51777;53.570;9.984;2024-02-14T14:33:57;6.00;;;5.03;;
65189;SDS011;51777;53.570;9.984;2024-02-14T14:36:22;6.88;;;5.13;;
65189;SDS011;51777;53.570;9.984;2024-02-14T14:38:47;8.57;;;5.85;;
65189;SDS011;51777;53.570;9.984;2024-02-14T14:41:13;11.95;;;5.80;;
65189;SDS011;51777;53.570;9.984;2024-02-14T14:43:39;4.90;;;3.40;;
65189;SDS011;51777;53.570;9.984;2024-02-14T14:46:05;8.25;;;5.72;;